sensor_id;sensor_type;location;lat;lon;timestamp;P1;durP1;ratioP1;P2;durP2;ratioP2
16099;SDS011;8154;50.830;12.082;2022-12-15T00:01:52;19.38;;;10.55;;
16099;SDS011;8154;50.830;12.082;2022-12-15T00:04:55;18.92;;;11.13;;
16099;SDS011;8154;50.830;12.082;2022-12-15T00:08:04;17.17;;;10.73;;
16099;SDS011;8154;50.830;12.082;2022-12-15T00:11:12;16.38;;;10.25;;
16099;SDS011;8154;50.830;12.082;2022-12-15T00:14:14;16.42;;;10.13;;
16099;SDS011;8154;50.830;12.082;2022-12-15T00:17:17;16.25;;;10.73;;
16099;SDS011;8154;50.830;12.082;2022-12-15T00:20:24;16.95;;;10.20;;
16099;SDS011;8154;50.830;12.082;2022-12-15T00:23:28;15.13;;;10.02;;
16099;SDS011;8154;50.830;12.082;2022-12-15T00:26:32;14.50;;;9.73;;
16099;SDS011;8154;50.830;12.082;2022-12-15T00:29:36;16.75;;;9.77;;
16099;SDS011;8154;50.830;12.082;2022-12-15T00:32:39;13.50;;;9.52;;
16099;SDS011;8154;50.830;12.082;2022-12-15T00:35:42;12.93;;;9.32;;
16099;SDS011;8154;50.830;12.082;2022-12-15T00:38:44;13.90;;;9.48;;
16099;SDS011;8154;50.830;12.082;2022-12-15T00:41:30;13.77;;;9.32;;
16099;SDS011;8154;50.830;12.082;2022-12-15T00:44:15;13.25;;;8.82;;
16099;SDS011;8154;50.830;12.082;2022-12-15T00:46:59;12.98;;;9.15;;
16099;SDS011;8154;50.830;12.082;2022-12-15T00:49:44;13.02;;;8.70;;
16099;SDS011;8154;50.830;12.082;2022-12-15T00:52:50;16.10;;;9.30;;
16099;SDS011;8154;50.830;12.082;2022-12-15T00:55:53;13.05;;;8.48;;
16099;SDS011;8154;50.830;12.082;2022-12-15T00:58:56;11.88;;;8.50;;
16099;SDS011;8154;50.830;12.082;2022-12-15T01:01:59;11.70;;;8.40;;
16099;SDS011;8154;50.830;12.082;2022-12-15T01:05:03;11.82;;;8.43;;
16099;SDS011;8154;50.830;12.082;2022-12-15T01:08:06;12.45;;;8.55;;
16099;SDS011;8154;50.830;12.082;2022-12-15T01:11:10;11.77;;;8.30;;
16099;SDS011;8154;50.830;12.082;2022-12-15T01:14:13;11.65;;;8.18;;
16099;SDS011;8154;50.830;12.082;2022-12-15T01:17:16;11.05;;;7.95;;
16099;SDS011;8154;50.830;12.082;2022-12-15T01:20:20;12.25;;;8.00;;
16099;SDS011;8154;50.830;12.082;2022-12-15T01:23:04;10.32;;;7.72;;
16099;SDS011;8154;50.830;12.082;2022-12-15T01:25:50;11.07;;;7.90;;
16099;SDS011;8154;50.830;12.082;2022-12-15T01:28:35;11.15;;;7.95;;
16099;SDS011;8154;50.830;12.082;2022-12-15T01:31:19;11.30;;;8.00;;
16099;SDS011;8154;50.830;12.082;2022-12-15T01:34:04;10.43;;;7.35;;
16099;SDS011;8154;50.830;12.082;2022-12-15T01:36:48;10.20;;;7.50;;
16099;SDS011;8154;50.830;12.082;2022-12-15T01:39:33;9.57;;;7.65;;
16099;SDS011;8154;50.830;12.082;2022-12-15T01:42:36;10.05;;;7.50;;
16099;SDS011;8154;50.830;12.082;2022-12-15T01:45:35;9.55;;;7.18;;
16099;SDS011;8154;50.830;12.082;2022-12-15T01:48:41;9.02;;;7.30;;
16099;SDS011;8154;50.830;12.082;2022-12-15T01:51:38;9.13;;;7.40;;
16099;SDS011;8154;50.830;12.082;2022-12-15T01:54:27;9.75;;;7.22;;
16099;SDS011;8154;50.830;12.082;2022-12-15T01:57:26;9.50;;;7.03;;
16099;SDS011;8154;50.830;12.082;2022-12-15T02:00:14;10.10;;;7.20;;
16099;SDS011;8154;50.830;12.082;2022-12-15T02:03:00;8.95;;;7.03;;
16099;SDS011;8154;50.830;12.082;2022-12-15T02:05:45;8.25;;;6.43;;
16099;SDS011;8154;50.830;12.082;2022-12-15T02:08:30;8.30;;;6.80;;
16099;SDS011;8154;50.830;12.082;2022-12-15T02:14:38;9.07;;;7.13;;
16099;SDS011;8154;50.830;12.082;2022-12-15T02:36:14;7.32;;;5.80;;
16099;SDS011;8154;50.830;12.082;2022-12-15T02:39:00;7.95;;;6.38;;
16099;SDS011;8154;50.830;12.082;2022-12-15T02:41:45;6.85;;;6.13;;
16099;SDS011;8154;50.830;12.082;2022-12-15T02:44:39;7.22;;;6.13;;
16099;SDS011;8154;50.830;12.082;2022-12-15T02:47:31;6.55;;;5.85;;
16099;SDS011;8154;50.830;12.082;2022-12-15T02:50:28;7.22;;;6.22;;
16099;SDS011;8154;50.830;12.082;2022-12-15T02:57:43;6.30;;;5.63;;
16099;SDS011;8154;50.830;12.082;2022-12-15T03:00:31;7.28;;;6.10;;
16099;SDS011;8154;50.830;12.082;2022-12-15T03:03:20;8.02;;;5.82;;
16099;SDS011;8154;50.830;12.082;2022-12-15T03:06:06;7.35;;;6.15;;
16099;SDS011;8154;50.830;12.082;2022-12-15T03:08:51;7.40;;;5.75;;
16099;SDS011;8154;50.830;12.082;2022-12-15T03:11:36;7.07;;;6.15;;
16099;SDS011;8154;50.830;12.082;2022-12-15T03:14:21;7.30;;;6.00;;
16099;SDS011;8154;50.830;12.082;2022-12-15T03:17:05;7.05;;;5.95;;
16099;SDS011;8154;50.830;12.082;2022-12-15T03:19:50;6.85;;;5.82;;
16099;SDS011;8154;50.830;12.082;2022-12-15T03:22:35;6.88;;;5.70;;
16099;SDS011;8154;50.830;12.082;2022-12-15T03:25:21;6.90;;;5.80;;
16099;SDS011;8154;50.830;12.082;2022-12-15T03:28:06;6.45;;;5.82;;
16099;SDS011;8154;50.830;12.082;2022-12-15T03:30:50;6.60;;;5.50;;
16099;SDS011;8154;50.830;12.082;2022-12-15T03:33:35;6.13;;;5.22;;
16099;SDS011;8154;50.830;12.082;2022-12-15T03:36:20;6.22;;;5.38;;
16099;SDS011;8154;50.830;12.082;2022-12-15T03:39:07;6.10;;;5.50;;
16099;SDS011;8154;50.830;12.082;2022-12-15T03:41:51;6.22;;;5.60;;
16099;SDS011;8154;50.830;12.082;2022-12-15T03:44:36;6.20;;;5.07;;
16099;SDS011;8154;50.830;12.082;2022-12-15T03:47:20;6.38;;;5.18;;
16099;SDS011;8154;50.830;12.082;2022-12-15T03:50:05;5.72;;;5.13;;
16099;SDS011;8154;50.830;12.082;2022-12-15T03:52:56;5.70;;;5.07;;
16099;SDS011;8154;50.830;12.082;2022-12-15T03:55:44;6.50;;;5.47;;
16099;SDS011;8154;50.830;12.082;2022-12-15T03:58:29;5.40;;;4.90;;
16099;SDS011;8154;50.830;12.082;2022-12-15T04:01:29;5.80;;;5.20;;
16099;SDS011;8154;50.830;12.082;2022-12-15T04:04:16;5.75;;;5.10;;
16099;SDS011;8154;50.830;12.082;2022-12-15T04:07:00;6.40;;;5.45;;
16099;SDS011;8154;50.830;12.082;2022-12-15T04:09:45;5.90;;;5.30;;
16099;SDS011;8154;50.830;12.082;2022-12-15T04:12:29;5.75;;;5.20;;
16099;SDS011;8154;50.830;12.082;2022-12-15T04:15:14;5.20;;;4.70;;
16099;SDS011;8154;50.830;12.082;2022-12-15T04:18:02;5.88;;;5.20;;
16099;SDS011;8154;50.830;12.082;2022-12-15T04:21:03;5.30;;;4.80;;
16099;SDS011;8154;50.830;12.082;2022-12-15T04:23:51;5.30;;;4.80;;
16099;SDS011;8154;50.830;12.082;2022-12-15T04:26:53;5.30;;;4.80;;
16099;SDS011;8154;50.830;12.082;2022-12-15T04:29:57;5.68;;;5.10;;
16099;SDS011;8154;50.830;12.082;2022-12-15T04:33:00;5.53;;;5.03;;
16099;SDS011;8154;50.830;12.082;2022-12-15T04:36:06;6.10;;;5.25;;
16099;SDS011;8154;50.830;12.082;2022-12-15T04:39:12;5.65;;;5.05;;
16099;SDS011;8154;50.830;12.082;2022-12-15T04:42:15;5.28;;;4.78;;
16099;SDS011;8154;50.830;12.082;2022-12-15T04:45:22;4.78;;;4.38;;
16099;SDS011;8154;50.830;12.082;2022-12-15T04:48:27;5.25;;;4.75;;
16099;SDS011;8154;50.830;12.082;2022-12-15T04:51:29;5.50;;;5.00;;
16099;SDS011;8154;50.830;12.082;2022-12-15T04:54:37;4.72;;;4.32;;
16099;SDS011;8154;50.830;12.082;2022-12-15T04:57:41;4.90;;;4.40;;
16099;SDS011;8154;50.830;12.082;2022-12-15T05:00:44;5.13;;;4.63;;
16099;SDS011;8154;50.830;12.082;2022-12-15T05:03:49;5.20;;;4.70;;
16099;SDS011;8154;50.830;12.082;2022-12-15T05:06:52;5.35;;;4.85;;
16099;SDS011;8154;50.830;12.082;2022-12-15T05:09:57;5.22;;;4.72;;
16099;SDS011;8154;50.830;12.082;2022-12-15T05:13:06;5.40;;;4.90;;
16099;SDS011;8154;50.830;12.082;2022-12-15T05:16:11;5.25;;;4.75;;
16099;SDS011;8154;50.830;12.082;2022-12-15T05:19:14;5.30;;;4.80;;
16099;SDS011;8154;50.830;12.082;2022-12-15T05:25:44;5.07;;;4.57;;
16099;SDS011;8154;50.830;12.082;2022-12-15T05:28:47;4.78;;;4.38;;
16099;SDS011;8154;50.830;12.082;2022-12-15T05:31:51;4.80;;;4.40;;
16099;SDS011;8154;50.830;12.082;2022-12-15T05:34:42;5.13;;;4.63;;
16099;SDS011;8154;50.830;12.082;2022-12-15T05:37:27;4.90;;;4.40;;
16099;SDS011;8154;50.830;12.082;2022-12-15T05:40:12;5.10;;;4.60;;
16099;SDS011;8154;50.830;12.082;2022-12-15T05:42:57;5.03;;;4.53;;
16099;SDS011;8154;50.830;12.082;2022-12-15T05:45:42;4.38;;;3.97;;
16099;SDS011;8154;50.830;12.082;2022-12-15T05:48:27;4.63;;;4.22;;
16099;SDS011;8154;50.830;12.082;2022-12-15T05:51:12;4.80;;;4.30;;
16099;SDS011;8154;50.830;12.082;2022-12-15T05:53:59;5.15;;;4.65;;
16099;SDS011;8154;50.830;12.082;2022-12-15T05:56:44;4.80;;;4.40;;
16099;SDS011;8154;50.830;12.082;2022-12-15T05:59:30;4.80;;;4.40;;
16099;SDS011;8154;50.830;12.082;2022-12-15T06:02:18;5.10;;;4.60;;
16099;SDS011;8154;50.830;12.082;2022-12-15T06:05:05;5.03;;;4.63;;
16099;SDS011;8154;50.830;12.082;2022-12-15T06:07:50;5.00;;;4.55;;
16099;SDS011;8154;50.830;12.082;2022-12-15T06:10:35;4.70;;;4.30;;
16099;SDS011;8154;50.830;12.082;2022-12-15T06:13:23;5.40;;;4.70;;
16099;SDS011;8154;50.830;12.082;2022-12-15T06:16:15;4.68;;;4.28;;
16099;SDS011;8154;50.830;12.082;2022-12-15T06:19:04;5.30;;;4.80;;
16099;SDS011;8154;50.830;12.082;2022-12-15T06:21:51;5.35;;;4.90;;
16099;SDS011;8154;50.830;12.082;2022-12-15T06:24:39;5.05;;;4.55;;
16099;SDS011;8154;50.830;12.082;2022-12-15T06:27:25;4.97;;;4.57;;
16099;SDS011;8154;50.830;12.082;2022-12-15T06:30:10;4.95;;;4.50;;
16099;SDS011;8154;50.830;12.082;2022-12-15T06:33:11;4.85;;;4.32;;
16099;SDS011;8154;50.830;12.082;2022-12-15T06:35:56;4.80;;;4.40;;
16099;SDS011;8154;50.830;12.082;2022-12-15T06:38:48;5.43;;;4.93;;
16099;SDS011;8154;50.830;12.082;2022-12-15T06:41:33;5.00;;;4.60;;
16099;SDS011;8154;50.830;12.082;2022-12-15T06:44:19;4.97;;;4.47;;
16099;SDS011;8154;50.830;12.082;2022-12-15T06:47:17;4.88;;;4.43;;
16099;SDS011;8154;50.830;12.082;2022-12-15T06:50:21;4.70;;;4.30;;
16099;SDS011;8154;50.830;12.082;2022-12-15T06:53:08;5.10;;;4.60;;
16099;SDS011;8154;50.830;12.082;2022-12-15T06:56:03;5.00;;;4.50;;
16099;SDS011;8154;50.830;12.082;2022-12-15T06:58:51;4.78;;;4.38;;
16099;SDS011;8154;50.830;12.082;2022-12-15T07:01:37;4.85;;;4.45;;
16099;SDS011;8154;50.830;12.082;2022-12-15T07:04:24;5.28;;;4.78;;
16099;SDS011;8154;50.830;12.082;2022-12-15T07:07:12;5.65;;;4.90;;
16099;SDS011;8154;50.830;12.082;2022-12-15T07:09:57;4.88;;;4.47;;
16099;SDS011;8154;50.830;12.082;2022-12-15T07:12:57;5.35;;;4.85;;
16099;SDS011;8154;50.830;12.082;2022-12-15T07:15:41;4.97;;;4.57;;
16099;SDS011;8154;50.830;12.082;2022-12-15T07:18:31;5.25;;;4.75;;
16099;SDS011;8154;50.830;12.082;2022-12-15T07:21:24;5.40;;;4.90;;
16099;SDS011;8154;50.830;12.082;2022-12-15T07:24:11;5.38;;;4.88;;
16099;SDS011;8154;50.830;12.082;2022-12-15T07:26:57;5.63;;;5.13;;
16099;SDS011;8154;50.830;12.082;2022-12-15T07:29:43;5.55;;;5.05;;
16099;SDS011;8154;50.830;12.082;2022-12-15T07:32:52;4.90;;;4.50;;
16099;SDS011;8154;50.830;12.082;2022-12-15T07:35:37;5.38;;;4.88;;
16099;SDS011;8154;50.830;12.082;2022-12-15T07:38:22;5.50;;;5.00;;
16099;SDS011;8154;50.830;12.082;2022-12-15T07:41:08;5.40;;;4.90;;
16099;SDS011;8154;50.830;12.082;2022-12-15T07:43:56;5.65;;;5.07;;
16099;SDS011;8154;50.830;12.082;2022-12-15T07:46:41;5.38;;;4.88;;
16099;SDS011;8154;50.830;12.082;2022-12-15T07:49:31;5.60;;;5.10;;
16099;SDS011;8154;50.830;12.082;2022-12-15T07:52:16;5.18;;;4.68;;
16099;SDS011;8154;50.830;12.082;2022-12-15T07:55:01;5.15;;;4.75;;
16099;SDS011;8154;50.830;12.082;2022-12-15T07:57:47;5.13;;;4.72;;
16099;SDS011;8154;50.830;12.082;2022-12-15T08:00:34;5.60;;;5.10;;
16099;SDS011;8154;50.830;12.082;2022-12-15T08:03:19;5.70;;;5.20;;
16099;SDS011;8154;50.830;12.082;2022-12-15T08:06:07;5.50;;;5.00;;
16099;SDS011;8154;50.830;12.082;2022-12-15T08:08:57;5.60;;;5.10;;
16099;SDS011;8154;50.830;12.082;2022-12-15T08:11:42;5.40;;;4.90;;
16099;SDS011;8154;50.830;12.082;2022-12-15T08:14:33;4.90;;;4.50;;
16099;SDS011;8154;50.830;12.082;2022-12-15T08:17:42;5.32;;;4.93;;
16099;SDS011;8154;50.830;12.082;2022-12-15T08:20:33;4.85;;;4.45;;
16099;SDS011;8154;50.830;12.082;2022-12-15T08:23:19;5.43;;;4.93;;
16099;SDS011;8154;50.830;12.082;2022-12-15T08:26:12;5.40;;;4.90;;
16099;SDS011;8154;50.830;12.082;2022-12-15T08:29:10;5.50;;;5.00;;
16099;SDS011;8154;50.830;12.082;2022-12-15T08:32:01;5.32;;;4.85;;
16099;SDS011;8154;50.830;12.082;2022-12-15T08:34:49;5.32;;;4.93;;
16099;SDS011;8154;50.830;12.082;2022-12-15T08:37:34;5.50;;;5.00;;
16099;SDS011;8154;50.830;12.082;2022-12-15T08:40:21;5.18;;;4.78;;
16099;SDS011;8154;50.830;12.082;2022-12-15T08:43:06;5.38;;;4.88;;
16099;SDS011;8154;50.830;12.082;2022-12-15T08:45:54;5.50;;;5.00;;
16099;SDS011;8154;50.830;12.082;2022-12-15T08:48:42;5.40;;;4.90;;
16099;SDS011;8154;50.830;12.082;2022-12-15T08:51:29;5.50;;;5.10;;
16099;SDS011;8154;50.830;12.082;2022-12-15T08:54:17;5.50;;;5.10;;
16099;SDS011;8154;50.830;12.082;2022-12-15T08:57:03;5.38;;;4.97;;
16099;SDS011;8154;50.830;12.082;2022-12-15T08:59:51;5.00;;;4.60;;
16099;SDS011;8154;50.830;12.082;2022-12-15T09:02:37;5.28;;;4.80;;
16099;SDS011;8154;50.830;12.082;2022-12-15T09:05:25;5.40;;;4.90;;
16099;SDS011;8154;50.830;12.082;2022-12-15T09:08:28;5.45;;;4.95;;
16099;SDS011;8154;50.830;12.082;2022-12-15T09:11:14;5.75;;;5.25;;
16099;SDS011;8154;50.830;12.082;2022-12-15T09:13:58;5.05;;;4.65;;
16099;SDS011;8154;50.830;12.082;2022-12-15T09:16:47;5.30;;;4.82;;
16099;SDS011;8154;50.830;12.082;2022-12-15T09:19:39;5.30;;;4.80;;
16099;SDS011;8154;50.830;12.082;2022-12-15T09:22:26;4.93;;;4.53;;
16099;SDS011;8154;50.830;12.082;2022-12-15T09:25:25;5.45;;;4.95;;
16099;SDS011;8154;50.830;12.082;2022-12-15T09:28:16;5.50;;;5.00;;
16099;SDS011;8154;50.830;12.082;2022-12-15T09:31:14;4.93;;;4.53;;
16099;SDS011;8154;50.830;12.082;2022-12-15T09:34:18;5.30;;;4.88;;
16099;SDS011;8154;50.830;12.082;2022-12-15T09:37:06;5.00;;;4.60;;
16099;SDS011;8154;50.830;12.082;2022-12-15T09:40:03;4.80;;;4.40;;
16099;SDS011;8154;50.830;12.082;2022-12-15T09:42:54;5.28;;;4.78;;
16099;SDS011;8154;50.830;12.082;2022-12-15T09:45:46;5.40;;;4.90;;
16099;SDS011;8154;50.830;12.082;2022-12-15T09:55:36;5.10;;;4.70;;
16099;SDS011;8154;50.830;12.082;2022-12-15T10:01:55;4.90;;;4.50;;
16099;SDS011;8154;50.830;12.082;2022-12-15T10:08:12;4.85;;;4.45;;
16099;SDS011;8154;50.830;12.082;2022-12-15T10:11:45;4.90;;;4.50;;
16099;SDS011;8154;50.830;12.082;2022-12-15T10:21:34;5.10;;;4.70;;
16099;SDS011;8154;50.830;12.082;2022-12-15T10:24:20;5.05;;;4.65;;
16099;SDS011;8154;50.830;12.082;2022-12-15T10:30:41;5.00;;;4.60;;
16099;SDS011;8154;50.830;12.082;2022-12-15T10:33:35;4.70;;;4.30;;
16099;SDS011;8154;50.830;12.082;2022-12-15T10:36:25;5.05;;;4.65;;
16099;SDS011;8154;50.830;12.082;2022-12-15T10:39:13;4.85;;;4.45;;
16099;SDS011;8154;50.830;12.082;2022-12-15T10:42:44;4.72;;;4.32;;
16099;SDS011;8154;50.830;12.082;2022-12-15T10:45:34;4.70;;;4.30;;
16099;SDS011;8154;50.830;12.082;2022-12-15T10:48:25;5.00;;;4.60;;
16099;SDS011;8154;50.830;12.082;2022-12-15T10:54:30;4.90;;;4.50;;
16099;SDS011;8154;50.830;12.082;2022-12-15T10:57:32;4.50;;;4.20;;
16099;SDS011;8154;50.830;12.082;2022-12-15T11:00:24;4.72;;;4.32;;
16099;SDS011;8154;50.830;12.082;2022-12-15T11:03:23;4.50;;;4.20;;
16099;SDS011;8154;50.830;12.082;2022-12-15T11:06:15;4.85;;;4.45;;
16099;SDS011;8154;50.830;12.082;2022-12-15T11:09:08;4.68;;;4.28;;
16099;SDS011;8154;50.830;12.082;2022-12-15T11:12:18;4.78;;;4.40;;
16099;SDS011;8154;50.830;12.082;2022-12-15T11:15:59;4.50;;;4.10;;
16099;SDS011;8154;50.830;12.082;2022-12-15T11:18:50;4.80;;;4.40;;
16099;SDS011;8154;50.830;12.082;2022-12-15T11:21:58;4.70;;;4.30;;
16099;SDS011;8154;50.830;12.082;2022-12-15T11:28:42;4.93;;;4.53;;
16099;SDS011;8154;50.830;12.082;2022-12-15T11:32:19;4.53;;;4.15;;
16099;SDS011;8154;50.830;12.082;2022-12-15T11:49:00;4.68;;;4.28;;
16099;SDS011;8154;50.830;12.082;2022-12-15T11:58:48;4.63;;;4.22;;
16099;SDS011;8154;50.830;12.082;2022-12-15T12:02:06;4.78;;;4.38;;
16099;SDS011;8154;50.830;12.082;2022-12-15T12:08:54;4.50;;;4.10;;
16099;SDS011;8154;50.830;12.082;2022-12-15T12:11:49;4.03;;;3.70;;
16099;SDS011;8154;50.830;12.082;2022-12-15T12:14:55;4.30;;;4.00;;
16099;SDS011;8154;50.830;12.082;2022-12-15T12:18:16;4.55;;;4.15;;
16099;SDS011;8154;50.830;12.082;2022-12-15T12:21:27;4.50;;;4.10;;
16099;SDS011;8154;50.830;12.082;2022-12-15T12:29:05;4.20;;;3.90;;
16099;SDS011;8154;50.830;12.082;2022-12-15T12:38:46;4.20;;;3.90;;
16099;SDS011;8154;50.830;12.082;2022-12-15T12:45:51;4.10;;;3.80;;
16099;SDS011;8154;50.830;12.082;2022-12-15T12:48:53;4.13;;;3.83;;
16099;SDS011;8154;50.830;12.082;2022-12-15T12:51:56;4.45;;;4.07;;
16099;SDS011;8154;50.830;12.082;2022-12-15T12:54:53;4.40;;;4.00;;
16099;SDS011;8154;50.830;12.082;2022-12-15T12:57:51;4.20;;;3.90;;
16099;SDS011;8154;50.830;12.082;2022-12-15T13:00:37;4.07;;;3.78;;
16099;SDS011;8154;50.830;12.082;2022-12-15T13:07:31;3.92;;;3.63;;
16099;SDS011;8154;50.830;12.082;2022-12-15T13:10:26;4.10;;;3.80;;
16099;SDS011;8154;50.830;12.082;2022-12-15T13:25:37;4.20;;;3.90;;
16099;SDS011;8154;50.830;12.082;2022-12-15T13:29:10;4.10;;;3.80;;
16099;SDS011;8154;50.830;12.082;2022-12-15T13:32:37;4.00;;;3.70;;
16099;SDS011;8154;50.830;12.082;2022-12-15T13:35:34;4.10;;;3.80;;
16099;SDS011;8154;50.830;12.082;2022-12-15T13:38:50;4.35;;;4.00;;
16099;SDS011;8154;50.830;12.082;2022-12-15T13:48:34;4.30;;;3.90;;
16099;SDS011;8154;50.830;12.082;2022-12-15T13:56:05;4.40;;;4.10;;
16099;SDS011;8154;50.830;12.082;2022-12-15T14:03:10;4.85;;;4.45;;
16099;SDS011;8154;50.830;12.082;2022-12-15T14:06:22;4.60;;;4.20;;
16099;SDS011;8154;50.830;12.082;2022-12-15T14:09:24;4.40;;;4.03;;
16099;SDS011;8154;50.830;12.082;2022-12-15T14:16:58;5.13;;;4.72;;
16099;SDS011;8154;50.830;12.082;2022-12-15T14:19:48;5.35;;;4.85;;
16099;SDS011;8154;50.830;12.082;2022-12-15T14:22:57;5.35;;;4.95;;
16099;SDS011;8154;50.830;12.082;2022-12-15T14:26:29;5.90;;;5.40;;
16099;SDS011;8154;50.830;12.082;2022-12-15T14:29:28;5.80;;;5.30;;
16099;SDS011;8154;50.830;12.082;2022-12-15T14:32:46;5.55;;;5.05;;
16099;SDS011;8154;50.830;12.082;2022-12-15T14:44:06;5.28;;;4.88;;
16099;SDS011;8154;50.830;12.082;2022-12-15T14:47:31;5.65;;;5.18;;
16099;SDS011;8154;50.830;12.082;2022-12-15T14:50:35;5.70;;;5.20;;
16099;SDS011;8154;50.830;12.082;2022-12-15T14:54:01;5.63;;;5.13;;
16099;SDS011;8154;50.830;12.082;2022-12-15T14:57:01;5.40;;;4.90;;
16099;SDS011;8154;50.830;12.082;2022-12-15T15:03:55;5.50;;;5.03;;
16099;SDS011;8154;50.830;12.082;2022-12-15T15:06:51;5.63;;;5.13;;
16099;SDS011;8154;50.830;12.082;2022-12-15T15:10:22;5.82;;;5.32;;
16099;SDS011;8154;50.830;12.082;2022-12-15T15:13:44;6.30;;;5.70;;
16099;SDS011;8154;50.830;12.082;2022-12-15T15:16:38;6.93;;;6.32;;
16099;SDS011;8154;50.830;12.082;2022-12-15T15:19:59;7.40;;;6.70;;
16099;SDS011;8154;50.830;12.082;2022-12-15T15:26:29;7.55;;;6.85;;
16099;SDS011;8154;50.830;12.082;2022-12-15T15:34:07;7.45;;;6.75;;
16099;SDS011;8154;50.830;12.082;2022-12-15T15:40:59;7.63;;;6.93;;
16099;SDS011;8154;50.830;12.082;2022-12-15T15:44:18;7.75;;;7.05;;
16099;SDS011;8154;50.830;12.082;2022-12-15T15:50:23;7.40;;;6.80;;
16099;SDS011;8154;50.830;12.082;2022-12-15T15:53:17;7.50;;;6.80;;
16099;SDS011;8154;50.830;12.082;2022-12-15T15:56:19;7.63;;;6.93;;
16099;SDS011;8154;50.830;12.082;2022-12-15T16:10:57;7.22;;;6.60;;
16099;SDS011;8154;50.830;12.082;2022-12-15T16:13:45;6.93;;;6.32;;
16099;SDS011;8154;50.830;12.082;2022-12-15T16:16:45;7.53;;;6.82;;
16099;SDS011;8154;50.830;12.082;2022-12-15T16:23:27;7.35;;;6.68;;
16099;SDS011;8154;50.830;12.082;2022-12-15T16:26:28;6.90;;;6.30;;
16099;SDS011;8154;50.830;12.082;2022-12-15T16:29:26;6.90;;;6.30;;
16099;SDS011;8154;50.830;12.082;2022-12-15T16:32:15;6.82;;;6.22;;
16099;SDS011;8154;50.830;12.082;2022-12-15T16:35:26;7.22;;;6.63;;
16099;SDS011;8154;50.830;12.082;2022-12-15T16:42:04;6.47;;;5.90;;
16099;SDS011;8154;50.830;12.082;2022-12-15T16:48:58;6.97;;;6.32;;
16099;SDS011;8154;50.830;12.082;2022-12-15T16:52:24;7.13;;;6.45;;
16099;SDS011;8154;50.830;12.082;2022-12-15T16:55:16;6.75;;;6.15;;
16099;SDS011;8154;50.830;12.082;2022-12-15T16:58:17;6.85;;;6.25;;
16099;SDS011;8154;50.830;12.082;2022-12-15T17:01:12;7.10;;;6.45;;
16099;SDS011;8154;50.830;12.082;2022-12-15T17:07:56;6.90;;;6.30;;
16099;SDS011;8154;50.830;12.082;2022-12-15T17:10:44;6.82;;;6.22;;
16099;SDS011;8154;50.830;12.082;2022-12-15T17:13:39;6.53;;;5.93;;
16099;SDS011;8154;50.830;12.082;2022-12-15T17:16:54;7.00;;;6.40;;
16099;SDS011;8154;50.830;12.082;2022-12-15T17:19:49;6.60;;;6.00;;
16099;SDS011;8154;50.830;12.082;2022-12-15T17:22:51;6.75;;;6.15;;
16099;SDS011;8154;50.830;12.082;2022-12-15T17:25:48;6.93;;;6.32;;
16099;SDS011;8154;50.830;12.082;2022-12-15T17:28:38;6.47;;;5.88;;
16099;SDS011;8154;50.830;12.082;2022-12-15T17:31:27;6.57;;;5.97;;
16099;SDS011;8154;50.830;12.082;2022-12-15T17:34:28;6.60;;;6.00;;
16099;SDS011;8154;50.830;12.082;2022-12-15T17:37:27;6.57;;;5.97;;
16099;SDS011;8154;50.830;12.082;2022-12-15T17:40:36;6.45;;;5.95;;
16099;SDS011;8154;50.830;12.082;2022-12-15T17:43:36;6.60;;;6.00;;
16099;SDS011;8154;50.830;12.082;2022-12-15T17:46:30;6.82;;;6.22;;
16099;SDS011;8154;50.830;12.082;2022-12-15T17:49:19;6.90;;;6.30;;
16099;SDS011;8154;50.830;12.082;2022-12-15T17:52:07;6.95;;;6.35;;
16099;SDS011;8154;50.830;12.082;2022-12-15T17:55:20;6.22;;;5.72;;
16099;SDS011;8154;50.830;12.082;2022-12-15T17:58:14;6.85;;;6.25;;
16099;SDS011;8154;50.830;12.082;2022-12-15T18:01:05;6.70;;;6.10;;
16099;SDS011;8154;50.830;12.082;2022-12-15T18:04:00;6.53;;;5.93;;
16099;SDS011;8154;50.830;12.082;2022-12-15T18:06:50;6.57;;;6.00;;
16099;SDS011;8154;50.830;12.082;2022-12-15T18:09:48;7.00;;;6.40;;
16099;SDS011;8154;50.830;12.082;2022-12-15T18:16:15;6.50;;;5.90;;
16099;SDS011;8154;50.830;12.082;2022-12-15T18:19:02;5.88;;;5.38;;
16099;SDS011;8154;50.830;12.082;2022-12-15T18:21:47;6.40;;;5.80;;
16099;SDS011;8154;50.830;12.082;2022-12-15T18:24:42;6.70;;;6.10;;
16099;SDS011;8154;50.830;12.082;2022-12-15T18:28:27;6.60;;;6.00;;
16099;SDS011;8154;50.830;12.082;2022-12-15T18:31:36;6.35;;;5.85;;
16099;SDS011;8154;50.830;12.082;2022-12-15T18:35:11;6.45;;;5.85;;
16099;SDS011;8154;50.830;12.082;2022-12-15T18:38:00;6.50;;;5.90;;
16099;SDS011;8154;50.830;12.082;2022-12-15T18:40:48;6.20;;;5.70;;
16099;SDS011;8154;50.830;12.082;2022-12-15T18:44:01;6.30;;;5.70;;
16099;SDS011;8154;50.830;12.082;2022-12-15T18:50:39;6.60;;;6.00;;
16099;SDS011;8154;50.830;12.082;2022-12-15T18:53:34;6.30;;;5.80;;
16099;SDS011;8154;50.830;12.082;2022-12-15T18:56:21;6.18;;;5.68;;
16099;SDS011;8154;50.830;12.082;2022-12-15T18:59:11;6.05;;;5.55;;
16099;SDS011;8154;50.830;12.082;2022-12-15T19:02:00;6.53;;;5.93;;
16099;SDS011;8154;50.830;12.082;2022-12-15T19:04:49;6.65;;;6.05;;
16099;SDS011;8154;50.830;12.082;2022-12-15T19:07:35;6.60;;;6.00;;
16099;SDS011;8154;50.830;12.082;2022-12-15T19:10:21;6.40;;;5.90;;
16099;SDS011;8154;50.830;12.082;2022-12-15T19:13:13;6.53;;;5.97;;
16099;SDS011;8154;50.830;12.082;2022-12-15T19:16:15;6.40;;;5.80;;
16099;SDS011;8154;50.830;12.082;2022-12-15T19:19:02;6.00;;;5.50;;
16099;SDS011;8154;50.830;12.082;2022-12-15T19:22:09;6.82;;;6.22;;
16099;SDS011;8154;50.830;12.082;2022-12-15T19:28:59;6.53;;;5.93;;
16099;SDS011;8154;50.830;12.082;2022-12-15T19:31:54;6.63;;;6.07;;
16099;SDS011;8154;50.830;12.082;2022-12-15T19:34:38;5.97;;;5.47;;
16099;SDS011;8154;50.830;12.082;2022-12-15T19:40:10;6.40;;;5.80;;
16099;SDS011;8154;50.830;12.082;2022-12-15T19:43:08;6.20;;;5.63;;
16099;SDS011;8154;50.830;12.082;2022-12-15T19:46:00;6.85;;;6.25;;
16099;SDS011;8154;50.830;12.082;2022-12-15T19:48:55;6.25;;;5.70;;
16099;SDS011;8154;50.830;12.082;2022-12-15T19:51:55;6.78;;;6.18;;
16099;SDS011;8154;50.830;12.082;2022-12-15T19:55:02;6.18;;;5.68;;
16099;SDS011;8154;50.830;12.082;2022-12-15T19:57:57;6.00;;;5.50;;
16099;SDS011;8154;50.830;12.082;2022-12-15T20:01:12;6.00;;;5.50;;
16099;SDS011;8154;50.830;12.082;2022-12-15T20:04:41;6.72;;;6.13;;
16099;SDS011;8154;50.830;12.082;2022-12-15T20:07:27;6.22;;;5.63;;
16099;SDS011;8154;50.830;12.082;2022-12-15T20:10:17;6.40;;;5.80;;
16099;SDS011;8154;50.830;12.082;2022-12-15T20:13:08;6.68;;;6.07;;
16099;SDS011;8154;50.830;12.082;2022-12-15T20:15:55;6.68;;;6.07;;
16099;SDS011;8154;50.830;12.082;2022-12-15T20:19:03;6.53;;;5.93;;
16099;SDS011;8154;50.830;12.082;2022-12-15T20:21:53;6.60;;;5.90;;
16099;SDS011;8154;50.830;12.082;2022-12-15T20:24:43;6.60;;;6.00;;
16099;SDS011;8154;50.830;12.082;2022-12-15T20:27:32;6.85;;;6.25;;
16099;SDS011;8154;50.830;12.082;2022-12-15T20:30:25;7.10;;;6.40;;
16099;SDS011;8154;50.830;12.082;2022-12-15T20:33:16;6.47;;;5.88;;
16099;SDS011;8154;50.830;12.082;2022-12-15T20:36:02;6.18;;;5.68;;
16099;SDS011;8154;50.830;12.082;2022-12-15T20:38:57;6.25;;;5.65;;
16099;SDS011;8154;50.830;12.082;2022-12-15T20:41:47;6.45;;;5.85;;
16099;SDS011;8154;50.830;12.082;2022-12-15T20:44:37;6.40;;;5.80;;
16099;SDS011;8154;50.830;12.082;2022-12-15T20:47:29;6.22;;;5.72;;
16099;SDS011;8154;50.830;12.082;2022-12-15T20:53:35;6.45;;;5.85;;
16099;SDS011;8154;50.830;12.082;2022-12-15T20:56:21;6.05;;;5.55;;
16099;SDS011;8154;50.830;12.082;2022-12-15T20:59:09;6.40;;;5.80;;
16099;SDS011;8154;50.830;12.082;2022-12-15T21:01:58;5.95;;;5.45;;
16099;SDS011;8154;50.830;12.082;2022-12-15T21:04:44;6.53;;;5.93;;